Time;durP1;ratioP1;P1;durP2;ratioP2;P2;SDS_P1;SDS_P2;PMS_P1;PMS_P2;Temp;Humidity;BMP_temperature;BMP_pressure;BME280_temperature;BME280_humidity;BME280_pressure;Samples;Min_cycle;Max_cycle;Signal;HPM_P1;HPM_P2
2022/05/10 00:01:51;;;;;;;9.15;8.18;;;17.40;99.90;;;;;;5033062;28;20026;-87
2022/05/10 00:04:17;;;;;;;8.80;8.00;;;17.30;99.90;;;;;;5033477;28;20440;-86
2022/05/10 00:06:46;;;;;;;8.93;8.00;;;17.00;99.90;;;;;;5034040;28;20029;-86
2022/05/10 00:09:13;;;;;;;9.15;8.35;;;16.60;99.90;;;;;;5033449;28;20036;-87
2022/05/10 00:11:39;;;;;;;9.13;8.30;;;16.30;99.90;;;;;;5033606;28;20119;-86
2022/05/10 00:14:05;;;;;;;10.18;8.07;;;16.20;99.90;;;;;;5033256;28;20080;-86
2022/05/10 00:16:33;;;;;;;8.60;7.80;;;16.00;99.90;;;;;;5032598;28;20040;-87
2022/05/10 00:18:59;;;;;;;9.32;8.43;;;16.20;99.90;;;;;;5033263;28;20021;-87
2022/05/10 00:21:25;;;;;;;9.25;8.45;;;16.50;99.90;;;;;;5031545;28;20040;-87
2022/05/10 00:23:51;;;;;;;9.40;8.60;;;16.70;99.90;;;;;;5033018;28;20021;-86
2022/05/10 00:26:17;;;;;;;10.32;8.45;;;16.60;99.90;;;;;;5032911;28;20029;-86
2022/05/10 00:28:43;;;;;;;9.23;8.30;;;16.40;99.90;;;;;;5033244;28;20032;-87
2022/05/10 00:31:10;;;;;;;9.48;8.65;;;16.30;99.90;;;;;;5032384;28;20026;-86
2022/05/10 00:33:37;;;;;;;9.35;8.55;;;16.30;99.90;;;;;;5032826;28;20037;-86
2022/05/10 00:36:03;;;;;;;9.25;8.35;;;16.20;99.90;;;;;;5032971;28;20037;-86
2022/05/10 00:38:35;;;;;;;8.98;8.18;;;16.20;99.90;;;;;;5032803;28;20560;-86
2022/05/10 00:41:16;;;;;;;9.75;8.85;;;16.30;99.90;;;;;;5032685;28;20053;-86
2022/05/10 00:43:46;;;;;;;9.93;8.35;;;16.00;99.90;;;;;;5032813;28;20079;-86
2022/05/10 00:46:17;;;;;;;8.32;7.63;;;15.60;99.90;;;;;;5032790;28;20021;-85
2022/05/10 00:49:00;;;;;;;9.30;8.38;;;15.80;99.90;;;;;;5029114;28;20057;-86
2022/05/10 00:51:44;;;;;;;8.63;7.82;;;16.10;99.90;;;;;;5031262;28;20029;-86
2022/05/10 00:54:36;;;;;;;9.57;8.35;;;16.30;99.90;;;;;;5032322;28;20033;-87
2022/05/10 00:57:27;;;;;;;9.63;8.38;;;16.20;99.90;;;;;;5032063;28;20068;-87
2022/05/10 01:00:24;;;;;;;9.35;8.48;;;16.00;99.90;;;;;;5032285;28;20036;-87
2022/05/10 01:03:27;;;;;;;8.60;7.80;;;15.90;99.90;;;;;;5032298;28;20155;-87
2022/05/10 01:06:21;;;;;;;10.73;9.65;;;16.00;99.90;;;;;;5032513;28;20091;-87
2022/05/10 01:08:57;;;;;;;10.15;8.48;;;16.00;99.90;;;;;;5032000;28;20040;-86
2022/05/10 01:11:35;;;;;;;9.65;8.57;;;16.00;99.90;;;;;;5032732;28;20148;-86
2022/05/10 01:14:08;;;;;;;10.15;9.15;;;15.90;99.90;;;;;;5032566;28;20116;-86
2022/05/10 01:16:34;;;;;;;9.40;8.60;;;16.10;99.90;;;;;;5031731;28;20037;-86
2022/05/10 01:18:59;;;;;;;10.07;9.07;;;15.90;99.90;;;;;;5032275;28;20036;-87
2022/05/10 01:21:46;;;;;;;9.88;8.85;;;15.80;99.90;;;;;;5030787;28;20055;-86
2022/05/10 01:24:34;;;;;;;10.32;9.43;;;15.80;99.90;;;;;;5032196;28;20036;-86
2022/05/10 01:27:18;;;;;;;10.25;9.20;;;15.80;99.90;;;;;;5031680;28;20440;-86
2022/05/10 01:30:07;;;;;;;9.68;8.77;;;15.80;99.90;;;;;;5031995;28;20084;-86
2022/05/10 01:35:41;;;;;;;9.85;8.95;;;15.90;99.90;;;;;;5032182;28;20044;-86
2022/05/10 01:38:15;;;;;;;9.95;9.10;;;15.80;99.90;;;;;;5031748;28;20022;-86
2022/05/10 01:40:50;;;;;;;9.23;8.32;;;15.60;99.90;;;;;;5031711;28;20071;-87
2022/05/10 01:43:45;;;;;;;9.93;9.02;;;15.10;99.90;;;;;;5016050;28;20021;-87
2022/05/10 01:46:15;;;;;;;10.13;9.15;;;15.50;99.90;;;;;;5031452;28;20505;-86
2022/05/10 01:48:45;;;;;;;9.80;8.80;;;15.60;99.90;;;;;;5014958;28;20037;-86
2022/05/10 01:51:19;;;;;;;10.32;9.25;;;15.70;99.90;;;;;;5031712;28;20030;-87
2022/05/10 01:53:45;;;;;;;9.00;8.20;;;15.50;99.90;;;;;;5031446;28;20106;-86
2022/05/10 01:56:18;;;;;;;9.63;8.38;;;15.50;99.90;;;;;;5031846;28;20418;-87
2022/05/10 01:58:45;;;;;;;9.68;8.25;;;15.60;99.90;;;;;;5030677;28;20017;-86
2022/05/10 02:01:31;;;;;;;8.80;8.10;;;15.50;99.90;;;;;;5031600;28;20029;-86
2022/05/10 02:04:11;;;;;;;8.80;8.07;;;15.50;99.90;;;;;;5029412;28;20034;-86
2022/05/10 02:06:52;;;;;;;8.93;7.95;;;15.50;99.90;;;;;;5031712;28;20026;-86
2022/05/10 02:09:42;;;;;;;8.63;7.80;;;15.60;99.90;;;;;;5031417;28;20029;-86
2022/05/10 02:12:34;;;;;;;9.43;8.60;;;15.60;99.90;;;;;;5031384;28;20051;-86
2022/05/10 02:15:32;;;;;;;9.50;8.68;;;15.60;99.90;;;;;;5031233;28;20029;-86
2022/05/10 02:18:09;;;;;;;9.15;8.35;;;15.50;99.90;;;;;;5030341;28;20053;-87
2022/05/10 02:20:44;;;;;;;9.77;8.88;;;15.70;99.90;;;;;;5031311;28;20113;-86
2022/05/10 02:23:18;;;;;;;9.00;8.20;;;15.70;99.90;;;;;;5031281;28;20029;-87
2022/05/10 02:25:49;;;;;;;9.30;8.50;;;15.60;99.90;;;;;;5031404;28;20025;-86
2022/05/10 02:28:19;;;;;;;9.35;8.45;;;15.50;99.90;;;;;;5015570;28;20024;-86
2022/05/10 02:30:45;;;;;;;9.57;8.57;;;15.50;99.90;;;;;;5028445;28;20029;-86
2022/05/10 02:33:14;;;;;;;9.90;8.52;;;15.30;99.90;;;;;;5031205;28;20581;-86
2022/05/10 02:35:56;;;;;;;9.07;8.27;;;15.40;99.90;;;;;;5031297;28;20038;-86
2022/05/10 02:38:28;;;;;;;9.75;8.73;;;15.40;99.90;;;;;;5031122;28;20037;-86
2022/05/10 02:40:57;;;;;;;9.55;8.50;;;15.30;99.90;;;;;;5031421;28;20082;-87
2022/05/10 02:43:42;;;;;;;9.18;8.38;;;15.20;99.90;;;;;;5031248;28;20060;-86
2022/05/10 02:46:08;;;;;;;9.45;8.55;;;15.10;99.90;;;;;;5031452;28;20022;-86
2022/05/10 02:48:36;;;;;;;9.55;8.55;;;15.20;99.90;;;;;;5031572;28;20053;-87
2022/05/10 02:51:03;;;;;;;10.20;9.20;;;15.30;99.90;;;;;;5030677;28;20441;-86
2022/05/10 02:53:29;;;;;;;9.45;8.60;;;15.30;99.90;;;;;;5031019;28;20041;-86
2022/05/10 02:56:08;;;;;;;10.05;9.05;;;15.30;99.90;;;;;;5030664;28;20029;-86
2022/05/10 02:58:43;;;;;;;10.98;9.85;;;15.30;99.90;;;;;;5012897;28;20430;-86
2022/05/10 03:01:36;;;;;;;10.70;9.57;;;15.10;99.90;;;;;;5031188;28;20083;-87
2022/05/10 03:04:03;;;;;;;10.40;9.35;;;15.30;99.90;;;;;;5029439;28;20025;-87
2022/05/10 03:06:30;;;;;;;11.23;9.52;;;15.40;99.90;;;;;;5031628;28;20413;-86
2022/05/10 03:08:57;;;;;;;11.15;10.02;;;15.40;99.90;;;;;;5030904;28;20052;-87
2022/05/10 03:11:23;;;;;;;10.55;9.63;;;15.40;99.90;;;;;;5032821;28;20367;-86
2022/05/10 03:13:49;;;;;;;10.32;9.35;;;15.50;99.90;;;;;;5034549;28;20029;-86
2022/05/10 03:16:16;;;;;;;10.55;9.55;;;15.30;99.90;;;;;;5019355;28;20039;-86
2022/05/10 03:18:42;;;;;;;10.57;9.68;;;15.30;99.90;;;;;;5030517;28;20025;-86
2022/05/10 03:21:08;;;;;;;10.88;9.88;;;15.40;99.90;;;;;;5034797;28;20396;-86
2022/05/10 03:23:34;;;;;;;10.75;9.75;;;15.40;99.90;;;;;;5034241;28;20100;-87
2022/05/10 03:25:59;;;;;;;10.80;9.80;;;15.30;99.90;;;;;;5033933;28;20052;-87
2022/05/10 03:28:26;;;;;;;10.40;9.30;;;15.40;99.90;;;;;;5034628;28;20068;-86
2022/05/10 03:30:51;;;;;;;10.55;9.55;;;15.30;99.90;;;;;;5034715;28;20029;-87
2022/05/10 03:33:18;;;;;;;10.25;9.25;;;15.40;99.90;;;;;;5034220;28;20060;-86
2022/05/10 03:35:43;;;;;;;10.52;9.60;;;15.40;99.90;;;;;;5034391;28;20045;-87
2022/05/10 03:38:09;;;;;;;9.88;8.88;;;15.30;99.90;;;;;;5034115;28;20489;-86
2022/05/10 03:40:35;;;;;;;10.55;9.55;;;15.20;99.90;;;;;;5033545;28;20029;-86
2022/05/10 03:43:01;;;;;;;9.55;8.75;;;15.20;99.90;;;;;;5034364;28;20021;-86
2022/05/10 03:45:27;;;;;;;10.85;9.73;;;15.10;99.90;;;;;;5032501;28;20029;-87
2022/05/10 03:47:54;;;;;;;9.93;8.93;;;15.20;99.90;;;;;;5034129;28;20026;-86
2022/05/10 03:50:23;;;;;;;10.80;9.80;;;15.00;99.90;;;;;;5033693;28;20430;-87
2022/05/10 03:52:49;;;;;;;10.50;9.27;;;15.00;99.90;;;;;;5033627;28;20537;-86
2022/05/10 03:55:18;;;;;;;10.07;9.15;;;15.00;99.90;;;;;;5015408;28;20490;-87
2022/05/10 03:57:44;;;;;;;9.75;8.85;;;15.10;99.90;;;;;;5034622;28;20327;-86
2022/05/10 04:00:14;;;;;;;9.63;8.82;;;15.20;99.90;;;;;;5033762;28;20029;-86
2022/05/10 04:02:40;;;;;;;9.95;9.05;;;15.00;99.90;;;;;;5033367;28;20063;-86
2022/05/10 04:05:06;;;;;;;10.07;9.07;;;15.10;99.90;;;;;;5033561;28;20025;-86
2022/05/10 04:07:32;;;;;;;10.75;9.00;;;15.10;99.90;;;;;;5033389;28;20030;-86
2022/05/10 04:09:58;;;;;;;9.82;8.82;;;15.10;99.90;;;;;;5033010;28;20132;-87
2022/05/10 04:12:23;;;;;;;14.20;8.77;;;15.10;99.90;;;;;;5033985;28;20032;-86
2022/05/10 04:14:49;;;;;;;10.40;9.45;;;15.00;99.90;;;;;;5033946;28;20520;-87
2022/05/10 04:17:15;;;;;;;10.38;9.40;;;14.80;99.90;;;;;;5033333;28;20072;-86
2022/05/10 04:19:40;;;;;;;11.80;9.45;;;14.60;99.90;;;;;;5033613;28;20068;-86
2022/05/10 04:22:06;;;;;;;10.88;9.52;;;14.50;99.90;;;;;;5032623;28;20041;-86
2022/05/10 04:24:32;;;;;;;11.43;10.43;;;14.50;99.90;;;;;;5033691;28;20025;-86
2022/05/10 04:26:58;;;;;;;10.85;9.75;;;14.70;99.90;;;;;;5033172;28;20018;-87
2022/05/10 04:29:23;;;;;;;11.07;10.07;;;14.70;99.90;;;;;;5033591;28;20128;-86
2022/05/10 04:31:49;;;;;;;11.48;10.20;;;14.80;99.90;;;;;;5032996;28;20022;-86
2022/05/10 04:34:15;;;;;;;10.50;9.45;;;14.70;99.90;;;;;;5033304;28;20516;-86
2022/05/10 04:36:40;;;;;;;10.57;9.57;;;14.60;99.90;;;;;;5033470;28;20029;-87
2022/05/10 04:39:06;;;;;;;10.77;9.68;;;14.60;99.90;;;;;;5032791;28;20034;-86
2022/05/10 04:41:36;;;;;;;10.75;9.65;;;14.60;99.90;;;;;;5032770;28;20060;-86
2022/05/10 04:44:06;;;;;;;11.52;9.52;;;14.80;99.90;;;;;;5033997;28;20024;-86
2022/05/10 04:46:35;;;;;;;10.40;9.50;;;14.90;99.90;;;;;;5033669;28;20033;-86
2022/05/10 04:49:01;;;;;;;10.05;9.15;;;15.00;99.90;;;;;;5034461;28;20026;-87
2022/05/10 04:51:28;;;;;;;10.82;9.32;;;15.00;99.90;;;;;;5032046;28;20029;-87
2022/05/10 04:53:55;;;;;;;10.57;9.63;;;14.90;99.90;;;;;;5032191;28;20037;-87
2022/05/10 04:56:21;;;;;;;11.02;9.90;;;14.80;99.90;;;;;;5015682;28;20417;-87
2022/05/10 04:58:47;;;;;;;10.20;9.20;;;14.90;99.90;;;;;;5033303;28;20026;-87
2022/05/10 05:01:15;;;;;;;10.57;9.52;;;14.70;99.90;;;;;;5032911;28;20082;-87
2022/05/10 05:03:47;;;;;;;9.82;8.93;;;14.80;99.90;;;;;;5033610;28;20067;-84
2022/05/10 05:06:13;;;;;;;10.20;9.23;;;14.90;99.90;;;;;;5033700;28;20406;-86
2022/05/10 05:08:39;;;;;;;9.90;9.00;;;14.80;99.90;;;;;;5031642;28;20036;-88
2022/05/10 05:11:05;;;;;;;10.18;9.27;;;14.90;99.90;;;;;;5033173;28;20034;-87
2022/05/10 05:13:31;;;;;;;11.88;10.07;;;15.10;99.90;;;;;;5032080;28;20037;-86
2022/05/10 05:15:57;;;;;;;11.05;9.90;;;15.20;99.90;;;;;;5032362;28;20037;-88
2022/05/10 05:18:22;;;;;;;12.15;9.77;;;15.30;99.90;;;;;;5033484;28;20025;-88
2022/05/10 05:20:49;;;;;;;10.68;9.57;;;15.40;99.90;;;;;;5032235;28;20044;-88
2022/05/10 05:23:16;;;;;;;11.60;9.80;;;15.40;99.90;;;;;;5032016;28;20029;-93
2022/05/10 05:25:42;;;;;;;14.55;9.75;;;15.50;99.90;;;;;;5031881;28;20037;-91
2022/05/10 05:28:09;;;;;;;11.73;10.52;;;15.50;99.90;;;;;;5032862;28;20038;-92
2022/05/10 05:30:35;;;;;;;11.80;9.60;;;15.50;99.90;;;;;;5048579;28;20429;-91
2022/05/10 05:33:02;;;;;;;11.05;9.95;;;15.40;99.90;;;;;;5031454;28;20052;-91
2022/05/10 05:35:28;;;;;;;12.50;10.00;;;15.50;99.90;;;;;;5031819;28;20026;-90
2022/05/10 05:37:54;;;;;;;11.52;10.02;;;15.60;99.90;;;;;;5032428;28;20456;-91
2022/05/10 05:40:21;;;;;;;11.40;9.85;;;15.80;99.90;;;;;;5014680;28;20029;-91
2022/05/10 05:42:50;;;;;;;10.82;9.30;;;15.90;99.90;;;;;;5032670;28;20036;-93
2022/05/10 05:45:18;;;;;;;10.70;9.05;;;15.90;99.90;;;;;;5032238;28;20025;-90
2022/05/10 05:47:44;;;;;;;12.13;9.35;;;16.00;99.90;;;;;;5031837;28;20029;-91
2022/05/10 05:50:14;;;;;;;12.73;9.95;;;16.00;99.90;;;;;;5031529;28;20049;-91
2022/05/10 05:52:40;;;;;;;10.07;9.07;;;16.00;99.90;;;;;;5032027;28;20056;-90
2022/05/10 05:55:08;;;;;;;11.35;9.85;;;16.10;99.90;;;;;;5032203;28;20065;-90
2022/05/10 05:57:35;;;;;;;10.52;8.93;;;16.10;99.90;;;;;;5014454;28;20406;-91
2022/05/10 06:00:01;;;;;;;12.43;9.55;;;16.10;99.90;;;;;;5031704;28;20028;-90
2022/05/10 06:02:27;;;;;;;11.88;9.90;;;16.00;99.90;;;;;;5031987;28;20033;-91
2022/05/10 06:04:53;;;;;;;12.80;10.05;;;16.00;99.90;;;;;;5031343;28;20029;-90
2022/05/10 06:07:20;;;;;;;21.35;11.07;;;15.90;99.90;;;;;;5031675;28;20037;-90
2022/05/10 06:09:47;;;;;;;11.75;10.55;;;15.90;99.90;;;;;;5032177;28;20025;-90
2022/05/10 06:12:16;;;;;;;14.55;10.60;;;16.10;99.90;;;;;;5031625;28;20037;-91
2022/05/10 06:14:42;;;;;;;13.70;10.48;;;16.10;99.90;;;;;;5031424;28;20040;-91
2022/05/10 06:17:09;;;;;;;12.45;10.63;;;16.20;99.90;;;;;;5031534;28;20037;-90
2022/05/10 06:19:37;;;;;;;14.25;10.93;;;16.20;99.90;;;;;;5031151;28;20091;-90
2022/05/10 06:22:04;;;;;;;10.65;9.75;;;16.30;99.90;;;;;;5013694;28;20507;-91
2022/05/10 06:24:30;;;;;;;11.63;10.30;;;16.40;99.90;;;;;;5032119;28;20030;-91
2022/05/10 06:26:55;;;;;;;14.50;10.60;;;16.50;99.90;;;;;;5013434;28;20120;-91
2022/05/10 06:29:21;;;;;;;14.65;11.02;;;16.70;99.90;;;;;;5031380;28;20429;-91
2022/05/10 06:31:47;;;;;;;12.57;10.40;;;16.90;99.90;;;;;;5013611;28;20075;-90
2022/05/10 06:34:15;;;;;;;14.98;11.32;;;17.00;99.90;;;;;;5031030;28;20040;-91
2022/05/10 06:36:41;;;;;;;13.85;10.70;;;16.90;99.90;;;;;;5032034;28;20041;-90
2022/05/10 06:39:07;;;;;;;16.63;11.27;;;17.00;99.90;;;;;;5031150;28;20026;-90
2022/05/10 06:41:34;;;;;;;14.38;11.13;;;17.00;99.90;;;;;;5031112;28;20517;-91
2022/05/10 06:44:00;;;;;;;13.88;10.75;;;17.10;99.90;;;;;;5031235;28;20018;-90
2022/05/10 06:46:27;;;;;;;12.77;10.40;;;17.40;99.90;;;;;;5033756;28;20056;-90
2022/05/10 06:48:53;;;;;;;13.75;10.93;;;17.50;99.90;;;;;;5035170;28;20100;-91
2022/05/10 06:51:21;;;;;;;12.82;11.52;;;17.50;99.90;;;;;;5033334;28;20060;-85
2022/05/10 06:53:48;;;;;;;12.15;10.77;;;17.60;99.90;;;;;;5035691;28;20030;-84
2022/05/10 06:56:14;;;;;;;11.95;10.75;;;17.70;99.90;;;;;;5017495;28;20410;-84
2022/05/10 06:58:41;;;;;;;19.77;11.60;;;17.80;99.90;;;;;;5036000;28;20029;-82
2022/05/10 07:01:11;;;;;;;16.20;12.00;;;17.90;99.90;;;;;;5034416;28;20037;-82
2022/05/10 07:03:39;;;;;;;12.40;10.93;;;17.90;99.90;;;;;;5035274;28;20497;-82
2022/05/10 07:06:07;;;;;;;13.07;11.30;;;18.00;99.90;;;;;;5035140;28;20033;-82
2022/05/10 07:08:33;;;;;;;13.15;11.02;;;18.20;99.90;;;;;;5034953;28;20030;-82
2022/05/10 07:10:59;;;;;;;11.93;10.60;;;18.20;99.90;;;;;;5034800;28;20117;-82
2022/05/10 07:13:26;;;;;;;12.30;9.88;;;18.30;99.90;;;;;;5035222;28;20041;-82
2022/05/10 07:15:52;;;;;;;10.52;9.38;;;18.40;99.90;;;;;;5034764;28;20108;-82
2022/05/10 07:18:19;;;;;;;10.85;9.77;;;18.40;99.90;;;;;;5034721;28;20140;-84
2022/05/10 07:20:46;;;;;;;11.88;8.80;;;18.40;99.90;;;;;;5017468;28;20499;-83
2022/05/10 07:23:13;;;;;;;8.95;8.13;;;18.50;99.90;;;;;;5035514;28;20484;-82
2022/05/10 07:25:39;;;;;;;10.35;8.48;;;18.70;99.90;;;;;;5034437;28;20187;-82
2022/05/10 07:28:06;;;;;;;9.20;8.40;;;18.70;99.90;;;;;;5034850;28;20093;-82
2022/05/10 07:30:33;;;;;;;11.45;9.13;;;18.70;99.90;;;;;;5035207;28;20029;-82
2022/05/10 07:32:59;;;;;;;9.45;8.65;;;18.70;99.90;;;;;;5034226;28;20049;-81
2022/05/10 07:38:14;;;;;;;8.82;8.02;;;19.00;99.90;;;;;;5034602;28;20524;-84
2022/05/10 07:40:41;;;;;;;8.95;7.85;;;19.10;99.90;;;;;;5035099;28;20104;-82
2022/05/10 07:43:07;;;;;;;9.18;8.15;;;19.10;99.90;;;;;;5034966;28;20037;-83
2022/05/10 07:45:34;;;;;;;9.18;8.38;;;19.20;99.90;;;;;;5035534;28;20013;-82
2022/05/10 07:47:59;;;;;;;9.25;8.30;;;19.30;99.90;;;;;;5034312;28;20061;-82
2022/05/10 07:50:25;;;;;;;9.07;8.27;;;19.30;99.90;;;;;;5034143;28;20107;-81
2022/05/10 07:52:51;;;;;;;9.68;8.13;;;19.40;99.90;;;;;;5034779;28;20029;-81
2022/05/10 07:55:18;;;;;;;9.38;8.57;;;19.50;99.90;;;;;;5034077;28;20034;-82
2022/05/10 07:57:44;;;;;;;8.80;7.97;;;19.50;99.90;;;;;;5029173;28;20477;-82
2022/05/10 08:00:14;;;;;;;9.00;8.10;;;19.60;99.90;;;;;;5033858;28;20490;-81
2022/05/10 08:02:44;;;;;;;8.07;7.28;;;19.60;99.90;;;;;;5033722;28;20110;-82
2022/05/10 08:05:19;;;;;;;9.43;7.82;;;19.70;99.90;;;;;;5033783;28;20029;-82
2022/05/10 08:07:44;;;;;;;9.30;8.30;;;19.80;99.90;;;;;;5033567;28;20067;-81
2022/05/10 08:10:10;;;;;;;9.05;8.25;;;19.90;99.90;;;;;;5033764;28;20045;-82
2022/05/10 08:12:37;;;;;;;8.38;7.68;;;20.10;99.90;;;;;;5034250;28;20083;-82
2022/05/10 08:15:04;;;;;;;8.13;7.32;;;20.20;99.90;;;;;;5033153;28;20121;-82
2022/05/10 08:17:30;;;;;;;7.63;6.93;;;20.20;99.90;;;;;;5033509;28;20041;-82
2022/05/10 08:19:56;;;;;;;7.30;6.70;;;20.30;99.90;;;;;;5033365;28;20108;-82
2022/05/10 08:22:22;;;;;;;7.43;6.72;;;20.50;99.90;;;;;;5033606;28;20224;-82
2022/05/10 08:24:48;;;;;;;7.55;6.78;;;20.60;99.90;;;;;;5034098;28;20060;-82
2022/05/10 08:27:13;;;;;;;7.55;6.85;;;20.70;99.90;;;;;;5033203;28;20025;-82
2022/05/10 08:29:40;;;;;;;7.57;6.88;;;20.70;99.90;;;;;;5033667;28;20103;-82
2022/05/10 08:32:06;;;;;;;7.95;7.25;;;20.80;99.90;;;;;;5032702;28;20029;-88
2022/05/10 08:34:34;;;;;;;7.32;6.68;;;20.90;99.90;;;;;;5033226;28;20040;-82
2022/05/10 08:37:01;;;;;;;7.60;6.63;;;20.90;99.90;;;;;;5033389;28;20501;-82
2022/05/10 08:39:27;;;;;;;7.20;6.50;;;20.90;99.90;;;;;;5033675;28;20067;-82
2022/05/10 08:41:57;;;;;;;7.20;6.50;;;21.00;99.90;;;;;;5032912;28;20037;-82
2022/05/10 08:44:29;;;;;;;7.30;6.25;;;21.10;99.90;;;;;;5032619;28;20076;-82
2022/05/10 08:47:00;;;;;;;7.00;6.30;;;21.30;99.90;;;;;;5033004;28;20379;-83
2022/05/10 08:49:39;;;;;;;7.97;7.28;;;21.40;99.90;;;;;;5032968;28;20145;-82
2022/05/10 08:52:06;;;;;;;7.43;6.55;;;21.40;99.90;;;;;;5033045;28;20113;-83
2022/05/10 08:54:37;;;;;;;7.82;6.90;;;21.50;99.90;;;;;;5033524;28;20025;-82
2022/05/10 08:57:27;;;;;;;7.18;6.57;;;21.50;99.90;;;;;;5032535;28;20494;-83
2022/05/10 09:00:02;;;;;;;7.40;6.72;;;21.50;99.90;;;;;;5032520;28;20469;-83
2022/05/10 09:02:44;;;;;;;7.18;6.47;;;21.40;99.90;;;;;;5032702;28;20021;-82
2022/05/10 09:05:38;;;;;;;7.30;6.60;;;21.50;99.90;;;;;;5032429;28;20037;-83
2022/05/10 09:08:29;;;;;;;8.10;6.68;;;21.60;99.90;;;;;;5032363;28;20025;-83
2022/05/10 09:11:07;;;;;;;7.55;6.95;;;21.90;99.90;;;;;;5032174;28;20440;-83
2022/05/10 09:13:33;;;;;;;8.25;6.80;;;22.00;99.90;;;;;;5032271;28;20037;-83
2022/05/10 09:16:02;;;;;;;8.27;7.30;;;22.00;99.90;;;;;;5032723;28;20038;-83
2022/05/10 09:18:31;;;;;;;9.95;7.20;;;22.00;99.90;;;;;;5031155;28;20021;-83
2022/05/10 09:20:57;;;;;;;7.50;6.80;;;22.20;99.90;;;;;;5032281;28;20026;-83
2022/05/10 09:24:10;;;;;;;7.82;6.40;;;22.30;99.90;;;;;;5032337;28;20032;-83
2022/05/10 09:26:44;;;;;;;7.80;7.10;;;22.40;99.90;;;;;;4993263;28;20124;-83
2022/05/10 09:29:32;;;;;;;7.20;6.53;;;22.50;99.90;;;;;;5009108;28;20161;-84
2022/05/10 09:35:01;;;;;;;7.05;6.40;;;22.70;99.90;;;;;;5008475;28;20125;-84
2022/05/10 09:37:45;;;;;;;7.60;6.72;;;22.80;99.90;;;;;;5010423;28;20064;-84
2022/05/10 09:40:34;;;;;;;7.05;6.35;;;22.90;99.90;;;;;;5009581;28;20096;-82
2022/05/10 09:43:15;;;;;;;6.72;6.13;;;23.00;99.90;;;;;;5007653;28;20060;-83
2022/05/10 09:45:41;;;;;;;6.93;6.38;;;23.10;99.90;;;;;;5009998;28;20017;-82
2022/05/10 09:48:07;;;;;;;6.13;5.63;;;23.20;99.90;;;;;;5009530;28;20116;-82
2022/05/10 09:50:39;;;;;;;7.32;6.07;;;23.30;99.90;;;;;;5009884;28;20060;-82
2022/05/10 09:53:20;;;;;;;7.47;5.88;;;23.50;99.90;;;;;;5009367;28;20375;-83
2022/05/10 09:56:23;;;;;;;6.15;5.65;;;23.70;99.90;;;;;;5009304;28;20121;-83
2022/05/10 09:58:58;;;;;;;8.10;5.65;;;23.70;99.90;;;;;;5010307;28;20038;-82
2022/05/10 10:01:42;;;;;;;6.15;5.50;;;23.70;99.90;;;;;;5027788;28;20045;-82
2022/05/10 10:04:21;;;;;;;6.20;5.63;;;23.40;99.90;;;;;;5031743;28;20053;-81
2022/05/10 10:07:04;;;;;;;6.88;5.65;;;23.60;99.90;;;;;;5028533;28;20072;-81
2022/05/10 10:09:32;;;;;;;5.90;5.25;;;23.80;99.90;;;;;;5032425;28;20390;-82
2022/05/10 10:11:58;;;;;;;6.15;5.60;;;23.70;99.90;;;;;;5030503;28;20441;-85
2022/05/10 10:14:38;;;;;;;6.22;5.40;;;24.00;99.90;;;;;;5031142;28;20095;-85
2022/05/10 10:17:04;;;;;;;6.10;5.60;;;24.30;99.90;;;;;;5030944;28;20076;-85
2022/05/10 10:19:43;;;;;;;5.50;5.10;;;24.30;99.90;;;;;;5031956;28;20021;-85
2022/05/10 10:22:26;;;;;;;6.30;5.72;;;24.30;99.90;;;;;;5036229;28;20029;-85
2022/05/10 10:25:15;;;;;;;5.85;5.35;;;24.40;99.90;;;;;;5032409;28;20075;-83
2022/05/10 10:27:50;;;;;;;5.90;5.40;;;24.30;99.90;;;;;;5035989;28;20025;-87
2022/05/10 10:30:37;;;;;;;5.85;4.88;;;24.50;99.90;;;;;;5035362;28;20080;-82
2022/05/10 10:33:29;;;;;;;5.15;4.75;;;24.50;99.90;;;;;;5034208;28;20073;-84
2022/05/10 10:35:59;;;;;;;5.70;5.22;;;24.50;99.90;;;;;;5034613;28;20034;-83
2022/05/10 10:38:50;;;;;;;5.82;5.32;;;24.30;99.90;;;;;;5035461;28;20044;-86
2022/05/10 10:41:27;;;;;;;5.50;5.00;;;24.60;99.90;;;;;;5034938;28;20032;-84
2022/05/10 10:44:09;;;;;;;5.82;5.32;;;24.90;99.90;;;;;;5035580;28;20026;-85
2022/05/10 10:46:47;;;;;;;6.20;5.70;;;24.90;99.90;;;;;;5034977;28;20060;-86
2022/05/10 10:49:15;;;;;;;6.00;5.50;;;24.70;99.90;;;;;;5017327;28;20496;-85
2022/05/10 10:51:41;;;;;;;5.93;5.43;;;24.70;99.90;;;;;;5035516;28;20030;-83
2022/05/10 10:54:16;;;;;;;5.60;5.10;;;24.90;99.90;;;;;;5034644;28;20026;-83
2022/05/10 10:56:50;;;;;;;6.00;5.40;;;25.10;99.90;;;;;;5034700;28;20048;-85
2022/05/10 10:59:31;;;;;;;5.60;5.13;;;25.30;99.90;;;;;;5034197;28;20037;-84
2022/05/10 11:02:24;;;;;;;5.35;4.85;;;25.40;99.90;;;;;;5034520;28;20033;-83
2022/05/10 11:05:14;;;;;;;4.90;4.50;;;25.60;99.90;;;;;;5035005;28;20029;-84
2022/05/10 11:07:52;;;;;;;5.18;4.53;;;25.60;99.90;;;;;;5022133;28;20030;-83
2022/05/10 11:10:48;;;;;;;4.90;4.45;;;25.70;99.90;;;;;;5019007;28;20172;-83
2022/05/10 11:13:17;;;;;;;5.25;3.90;;;25.80;99.90;;;;;;5035579;28;20476;-85
2022/05/10 11:16:01;;;;;;;4.50;4.10;;;25.90;99.90;;;;;;5034416;28;20107;-84
2022/05/10 11:19:01;;;;;;;4.20;3.70;;;26.10;99.90;;;;;;5033317;28;20036;-84
2022/05/10 11:21:35;;;;;;;6.60;3.90;;;26.60;99.90;;;;;;5033354;28;20029;-84
2022/05/10 11:24:01;;;;;;;4.20;3.90;;;26.80;99.90;;;;;;5033889;28;20025;-84
2022/05/10 11:26:51;;;;;;;3.97;3.58;;;26.70;99.90;;;;;;5034220;28;20040;-83
2022/05/10 11:29:34;;;;;;;4.85;3.75;;;26.60;99.90;;;;;;5034326;28;20029;-84
2022/05/10 11:32:17;;;;;;;4.05;3.40;;;26.60;99.90;;;;;;5034190;28;20025;-84
2022/05/10 11:34:48;;;;;;;3.67;3.30;;;26.70;99.90;;;;;;5034257;28;20029;-83
2022/05/10 11:37:21;;;;;;;3.80;3.50;;;26.70;99.90;;;;;;5034358;28;20422;-84
2022/05/10 11:40:25;;;;;;;3.80;3.50;;;26.70;99.90;;;;;;5030442;28;20359;-83
2022/05/10 11:43:09;;;;;;;4.95;3.58;;;26.70;99.90;;;;;;5028093;28;20045;-84
2022/05/10 11:45:34;;;;;;;5.20;3.70;;;26.80;99.90;;;;;;5034930;28;20104;-84
2022/05/10 11:48:00;;;;;;;4.50;3.95;;;27.20;99.90;;;;;;5033887;28;20113;-84
2022/05/10 11:53:59;;;;;;;4.20;3.78;;;28.20;99.90;;;;;;5033595;28;20107;-81
2022/05/10 11:56:33;;;;;;;4.40;4.00;;;28.60;99.90;;;;;;5033626;28;20037;-81
2022/05/10 11:59:03;;;;;;;4.30;4.00;;;28.70;99.90;;;;;;5034781;28;20025;-82
2022/05/10 12:01:45;;;;;;;4.00;3.70;;;28.70;99.90;;;;;;5033638;28;20112;-82
2022/05/10 12:04:45;;;;;;;3.58;3.30;;;29.30;99.90;;;;;;5033582;28;20032;-84
2022/05/10 12:07:25;;;;;;;4.05;3.75;;;29.30;99.90;;;;;;4952241;28;20047;-84
2022/05/10 12:09:56;;;;;;;3.35;3.15;;;29.90;99.90;;;;;;4953036;28;20039;-85
2022/05/10 12:12:31;;;;;;;3.40;3.10;;;30.00;99.90;;;;;;4949500;28;20090;-84
2022/05/10 12:24:02;;;;;;;3.45;3.15;;;30.60;99.90;;;;;;4948491;28;20046;-82
2022/05/10 12:26:43;;;;;;;3.53;3.13;;;30.70;99.90;;;;;;4948647;28;20039;-82
2022/05/10 12:29:35;;;;;;;3.47;3.20;;;31.20;99.90;;;;;;4948034;29;20119;-81
2022/05/10 12:32:21;;;;;;;3.45;3.15;;;31.00;99.90;;;;;;4952441;28;20101;-82
2022/05/10 12:34:52;;;;;;;2.97;2.78;;;31.20;99.90;;;;;;4952725;28;20039;-82
2022/05/10 12:37:28;;;;;;;3.30;2.92;;;31.90;99.90;;;;;;4952226;28;20065;-81
2022/05/10 12:40:12;;;;;;;3.20;2.90;;;31.90;99.90;;;;;;4953037;28;20034;-82
2022/05/10 12:42:59;;;;;;;3.10;2.90;;;32.20;99.90;;;;;;4984117;28;20037;-81
2022/05/10 12:46:19;;;;;;;4.05;3.25;;;32.50;99.90;;;;;;5032825;28;20053;-81
2022/05/10 12:49:19;;;;;;;3.55;3.25;;;31.60;99.90;;;;;;4987338;28;20030;-82
2022/05/10 12:52:13;;;;;;;3.30;3.10;;;31.20;99.90;;;;;;4991187;28;20423;-82
2022/05/10 12:54:45;;;;;;;2.90;2.70;;;31.80;99.90;;;;;;4986546;28;20053;-82
2022/05/10 12:57:37;;;;;;;4.88;3.35;;;31.50;99.90;;;;;;4990637;28;20046;-81
2022/05/10 13:00:07;;;;;;;3.20;2.80;;;31.90;99.90;;;;;;4990439;28;20034;-82
2022/05/10 13:02:37;;;;;;;5.40;3.05;;;32.60;99.90;;;;;;4990360;28;20133;-82
2022/05/10 13:05:08;;;;;;;3.15;2.95;;;32.70;99.90;;;;;;4973843;28;20536;-82
2022/05/10 13:07:51;;;;;;;3.17;2.97;;;32.50;99.90;;;;;;4991056;28;20069;-82
2022/05/10 13:10:23;;;;;;;2.75;2.55;;;32.60;99.90;;;;;;4975253;28;20034;-82
2022/05/10 13:13:01;;;;;;;2.92;2.72;;;32.20;99.90;;;;;;4987396;28;20113;-82
2022/05/10 13:15:29;;;;;;;3.08;2.70;;;32.20;99.90;;;;;;4991200;28;20085;-82
2022/05/10 13:17:57;;;;;;;3.00;2.80;;;32.00;99.90;;;;;;4990633;28;20042;-82
2022/05/10 13:20:28;;;;;;;3.20;2.90;;;31.80;99.90;;;;;;4989814;28;20027;-82
2022/05/10 13:23:02;;;;;;;3.65;2.80;;;31.20;99.90;;;;;;5013847;28;20196;-82
2022/05/10 13:25:40;;;;;;;3.38;3.00;;;31.40;99.90;;;;;;5032107;28;20025;-82
2022/05/10 13:28:20;;;;;;;4.07;3.08;;;31.50;99.90;;;;;;5032060;28;20029;-82
2022/05/10 13:30:52;;;;;;;3.72;2.47;;;31.90;99.90;;;;;;5029238;28;20363;-82
2022/05/10 13:33:39;;;;;;;3.38;3.05;;;31.50;99.90;;;;;;5032061;28;20050;-82